ASY44 LIMC-YPPH
Flight info
| Callsign | ASY44 |
|---|---|
| Flight time | N/A |
| Altitude | 37000 |
| Route | OSKOR DCT PEVAL DCT RASTU DCT DAROJ DCT ETIDA Q27 ARTAT UP975 ERGUN/N0485F390 UL124 EVSAS UM688 ULTED UT301 LUMOM M701 IMKEN W3 RADID L319 IMGOD M317 ROTAL W152 ROSUM N570 KHM N717 ULDUN L700 BUBAS Z890 MIXAM P570 KITAL/N0489F410 L894 MERIB T12 KAGMI |
| Aircraft | A359/H-SDE2E3GHIJ3J4J5LM1ORWXY/LB1D1 |
Departure
| Time | N/A |
|---|---|
| Airport | Milan Malpensa International Airport (LIMC) |
Arrival
| Time | 2026-04-27 14:25 |
|---|---|
| Airport | Perth International Airport (YPPH) |
| Time | Latitude | Longitude | Altitude | Speed | Heading |
|---|---|---|---|---|---|
| 2026-04-27 12:15 | -22.51730 | 101.72661 | 37027 ft | 533 kts | 137° |
| 2026-04-27 12:16 | -22.54119 | 101.75767 | 37025 ft | 540 kts | 137° |
| 2026-04-27 12:16 | -22.58960 | 101.82077 | 37028 ft | 547 kts | 137° |
| 2026-04-27 12:17 | -22.63808 | 101.88419 | 37035 ft | 546 kts | 137° |
| 2026-04-27 12:17 | -22.68627 | 101.94727 | 37039 ft | 547 kts | 137° |
| 2026-04-27 12:18 | -22.73507 | 102.01114 | 37031 ft | 547 kts | 137° |
| 2026-04-27 12:18 | -22.78363 | 102.07477 | 37038 ft | 548 kts | 137° |
| 2026-04-27 12:19 | -22.83222 | 102.13851 | 37032 ft | 548 kts | 137° |
| 2026-04-27 12:19 | -22.88046 | 102.20188 | 37038 ft | 548 kts | 137° |
| 2026-04-27 12:20 | -22.92898 | 102.26569 | 37037 ft | 548 kts | 137° |
| 2026-04-27 12:20 | -22.96928 | 102.31875 | 37038 ft | 549 kts | 137° |
| 2026-04-27 12:21 | -23.01783 | 102.38274 | 37034 ft | 549 kts | 137° |
| 2026-04-27 12:21 | -23.06640 | 102.44684 | 37035 ft | 550 kts | 137° |
| 2026-04-27 12:22 | -23.11490 | 102.51093 | 37031 ft | 550 kts | 137° |
| 2026-04-27 12:22 | -23.16357 | 102.57534 | 37034 ft | 550 kts | 137° |
| 2026-04-27 12:23 | -23.21221 | 102.63979 | 37033 ft | 550 kts | 137° |
| 2026-04-27 12:23 | -23.26076 | 102.70419 | 37042 ft | 551 kts | 137° |
| 2026-04-27 12:24 | -23.30935 | 102.76871 | 37034 ft | 551 kts | 137° |
| 2026-04-27 12:24 | -23.35796 | 102.83337 | 37035 ft | 551 kts | 137° |
| 2026-04-27 12:25 | -23.40646 | 102.89795 | 37033 ft | 551 kts | 137° |
| 2026-04-27 12:25 | -23.45504 | 102.96272 | 37028 ft | 551 kts | 137° |
| 2026-04-27 12:26 | -23.50324 | 103.02708 | 37034 ft | 551 kts | 137° |
| 2026-04-27 12:26 | -23.55174 | 103.09190 | 37029 ft | 552 kts | 137° |
| 2026-04-27 12:27 | -23.60025 | 103.15683 | 37032 ft | 552 kts | 137° |
| 2026-04-27 12:27 | -23.64879 | 103.22187 | 37029 ft | 552 kts | 137° |
| 2026-04-27 12:28 | -23.69721 | 103.28686 | 37031 ft | 552 kts | 137° |
| 2026-04-27 12:28 | -23.74567 | 103.35198 | 37029 ft | 552 kts | 137° |
| 2026-04-27 12:29 | -23.79406 | 103.41707 | 37029 ft | 552 kts | 137° |
| 2026-04-27 12:29 | -23.84215 | 103.48186 | 37032 ft | 552 kts | 137° |
| 2026-04-27 12:30 | -23.89049 | 103.54708 | 37027 ft | 553 kts | 136° |
| 2026-04-27 12:30 | -23.93897 | 103.61256 | 37027 ft | 553 kts | 136° |
| 2026-04-27 12:31 | -23.98739 | 103.67805 | 37023 ft | 553 kts | 136° |
| 2026-04-27 12:31 | -24.03545 | 103.74313 | 37031 ft | 553 kts | 136° |
| 2026-04-27 12:32 | -24.08375 | 103.80863 | 37024 ft | 553 kts | 136° |
| 2026-04-27 12:32 | -24.13203 | 103.87419 | 37032 ft | 553 kts | 136° |
| 2026-04-27 12:33 | -24.18037 | 103.93992 | 37021 ft | 553 kts | 136° |
| 2026-04-27 12:33 | -24.22871 | 104.00574 | 37026 ft | 554 kts | 136° |
| 2026-04-27 12:34 | -24.27695 | 104.07151 | 37021 ft | 554 kts | 136° |
| 2026-04-27 12:34 | -24.32514 | 104.13730 | 37024 ft | 554 kts | 136° |
| 2026-04-27 12:35 | -24.37340 | 104.20327 | 37028 ft | 554 kts | 136° |
| 2026-04-27 12:35 | -24.42132 | 104.26887 | 37020 ft | 554 kts | 136° |
| 2026-04-27 12:36 | -24.46955 | 104.33498 | 37026 ft | 555 kts | 136° |
| 2026-04-27 12:36 | -24.51779 | 104.40120 | 37016 ft | 555 kts | 136° |
| 2026-04-27 12:37 | -24.56594 | 104.46739 | 37026 ft | 555 kts | 136° |
| 2026-04-27 12:37 | -24.61411 | 104.53369 | 37017 ft | 555 kts | 135° |
| 2026-04-27 12:38 | -24.66225 | 104.60004 | 37017 ft | 554 kts | 135° |
| 2026-04-27 12:38 | -24.71031 | 104.66638 | 37017 ft | 554 kts | 135° |
| 2026-04-27 12:39 | -24.75836 | 104.73279 | 37017 ft | 554 kts | 135° |
| 2026-04-27 12:39 | -24.80635 | 104.79921 | 37019 ft | 554 kts | 135° |
| 2026-04-27 12:40 | -24.85397 | 104.86521 | 37021 ft | 554 kts | 135° |
| 2026-04-27 12:40 | -24.90227 | 104.93223 | 37013 ft | 554 kts | 135° |
| 2026-04-27 12:41 | -24.94994 | 104.99848 | 37017 ft | 555 kts | 135° |
| 2026-04-27 12:41 | -24.99784 | 105.06514 | 37037 ft | 555 kts | 135° |
| 2026-04-27 12:42 | -25.04576 | 105.13193 | 37014 ft | 555 kts | 135° |
| 2026-04-27 12:42 | -25.09369 | 105.19883 | 37015 ft | 555 kts | 135° |
| 2026-04-27 12:43 | -25.14150 | 105.26564 | 37011 ft | 555 kts | 135° |
| 2026-04-27 12:43 | -25.18937 | 105.33265 | 37017 ft | 556 kts | 135° |
| 2026-04-27 12:44 | -25.23698 | 105.39937 | 37015 ft | 556 kts | 135° |
| 2026-04-27 12:44 | -25.28490 | 105.46663 | 37015 ft | 556 kts | 135° |
| 2026-04-27 12:45 | -25.33265 | 105.53375 | 37017 ft | 556 kts | 135° |
| 2026-04-27 12:45 | -25.38042 | 105.60098 | 37018 ft | 556 kts | 134° |
| 2026-04-27 12:46 | -25.42820 | 105.66833 | 37022 ft | 556 kts | 134° |
| 2026-04-27 12:46 | -25.47570 | 105.73538 | 37015 ft | 557 kts | 134° |
| 2026-04-27 12:47 | -25.52348 | 105.80292 | 37014 ft | 557 kts | 134° |
| 2026-04-27 12:47 | -25.57121 | 105.87049 | 37015 ft | 557 kts | 134° |
| 2026-04-27 12:48 | -25.61903 | 105.93828 | 37015 ft | 557 kts | 134° |
| 2026-04-27 12:48 | -25.66687 | 106.00601 | 37010 ft | 557 kts | 134° |
| 2026-04-27 12:49 | -25.71468 | 106.07388 | 37011 ft | 558 kts | 134° |
| 2026-04-27 12:49 | -25.76249 | 106.14182 | 37014 ft | 559 kts | 134° |
| 2026-04-27 12:50 | -25.81004 | 106.20958 | 37012 ft | 559 kts | 134° |
| 2026-04-27 12:50 | -25.85806 | 106.27815 | 37015 ft | 559 kts | 134° |
| 2026-04-27 12:51 | -25.90550 | 106.34601 | 37018 ft | 559 kts | 134° |
| 2026-04-27 12:51 | -25.95326 | 106.41440 | 37025 ft | 560 kts | 133° |
| 2026-04-27 12:52 | -26.00094 | 106.48280 | 37018 ft | 560 kts | 133° |
| 2026-04-27 12:52 | -26.04859 | 106.55128 | 37019 ft | 560 kts | 133° |
| 2026-04-27 12:53 | -26.12011 | 106.65426 | 37013 ft | 560 kts | 133° |
| 2026-04-27 12:53 | -26.16773 | 106.72295 | 37012 ft | 560 kts | 133° |
| 2026-04-27 12:54 | -26.21510 | 106.79137 | 37005 ft | 561 kts | 133° |
| 2026-04-27 12:54 | -26.26266 | 106.86019 | 37008 ft | 561 kts | 133° |
| 2026-04-27 12:55 | -26.31054 | 106.92959 | 37023 ft | 561 kts | 133° |
| 2026-04-27 12:55 | -26.35811 | 106.99863 | 37006 ft | 561 kts | 132° |
| 2026-04-27 12:56 | -26.40533 | 107.06726 | 37016 ft | 561 kts | 132° |
| 2026-04-27 12:56 | -26.45284 | 107.13643 | 37022 ft | 562 kts | 131° |
| 2026-04-27 12:57 | -26.50038 | 107.20572 | 37012 ft | 562 kts | 131° |
| 2026-04-27 12:57 | -26.54795 | 107.27519 | 37015 ft | 562 kts | 131° |
| 2026-04-27 12:58 | -26.59550 | 107.34473 | 37012 ft | 562 kts | 131° |
| 2026-04-27 12:58 | -26.64303 | 107.41435 | 37008 ft | 562 kts | 131° |
| 2026-04-27 12:59 | -26.69022 | 107.48357 | 37010 ft | 563 kts | 131° |
| 2026-04-27 12:59 | -26.73769 | 107.55332 | 37015 ft | 564 kts | 131° |
| 2026-04-27 13:00 | -26.78514 | 107.62319 | 37012 ft | 564 kts | 131° |
| 2026-04-27 13:00 | -26.83261 | 107.69315 | 37013 ft | 564 kts | 131° |
| 2026-04-27 13:01 | -26.88005 | 107.76314 | 37000 ft | 564 kts | 130° |
| 2026-04-27 13:01 | -26.92752 | 107.83330 | 37023 ft | 565 kts | 130° |
| 2026-04-27 13:02 | -26.97499 | 107.90362 | 37007 ft | 565 kts | 130° |
| 2026-04-27 13:02 | -27.02220 | 107.97364 | 37012 ft | 565 kts | 130° |
| 2026-04-27 13:03 | -27.06959 | 108.04404 | 37004 ft | 565 kts | 130° |
| 2026-04-27 13:03 | -27.11699 | 108.11454 | 37009 ft | 565 kts | 130° |
| 2026-04-27 13:04 | -27.16433 | 108.18508 | 37041 ft | 565 kts | 130° |
| 2026-04-27 13:04 | -27.20364 | 108.24374 | 37003 ft | 565 kts | 130° |
| 2026-04-27 13:05 | -27.25094 | 108.31444 | 37009 ft | 565 kts | 130° |
| 2026-04-27 13:05 | -27.30587 | 108.39666 | 37017 ft | 565 kts | 130° |
| 2026-04-27 13:06 | -27.34548 | 108.45605 | 37003 ft | 566 kts | 129° |
| 2026-04-27 13:06 | -27.39270 | 108.52698 | 37010 ft | 567 kts | 129° |
| 2026-04-27 13:07 | -27.43964 | 108.59759 | 37012 ft | 567 kts | 129° |
| 2026-04-27 13:07 | -27.48685 | 108.66872 | 37012 ft | 567 kts | 129° |
| 2026-04-27 13:08 | -27.53410 | 108.74002 | 37015 ft | 567 kts | 129° |
| 2026-04-27 13:08 | -27.58127 | 108.81131 | 37012 ft | 568 kts | 129° |
| 2026-04-27 13:09 | -27.62851 | 108.88283 | 37014 ft | 568 kts | 129° |
| 2026-04-27 13:09 | -27.67577 | 108.95445 | 37016 ft | 568 kts | 129° |
| 2026-04-27 13:10 | -27.72285 | 109.02594 | 37021 ft | 568 kts | 129° |
| 2026-04-27 13:10 | -27.76995 | 109.09757 | 37020 ft | 568 kts | 128° |
| 2026-04-27 13:11 | -27.81675 | 109.16889 | 37019 ft | 568 kts | 128° |
| 2026-04-27 13:11 | -27.86375 | 109.24064 | 37020 ft | 569 kts | 128° |
| 2026-04-27 13:12 | -27.91084 | 109.31263 | 37021 ft | 568 kts | 128° |
| 2026-04-27 13:12 | -27.95789 | 109.38469 | 37021 ft | 568 kts | 128° |
| 2026-04-27 13:13 | -28.00483 | 109.45671 | 37024 ft | 568 kts | 128° |
| 2026-04-27 13:13 | -28.05151 | 109.52843 | 37022 ft | 569 kts | 128° |
| 2026-04-27 13:14 | -28.09843 | 109.60066 | 37054 ft | 570 kts | 128° |
| 2026-04-27 13:14 | -28.14535 | 109.67300 | 37019 ft | 569 kts | 128° |
| 2026-04-27 13:15 | -28.19223 | 109.74541 | 37020 ft | 569 kts | 128° |
| 2026-04-27 13:15 | -28.23907 | 109.81787 | 37027 ft | 569 kts | 127° |
| 2026-04-27 13:16 | -28.28585 | 109.89036 | 37027 ft | 570 kts | 127° |
| 2026-04-27 13:16 | -28.33250 | 109.96278 | 37023 ft | 571 kts | 127° |
| 2026-04-27 13:17 | -28.37933 | 110.03558 | 37025 ft | 570 kts | 127° |
| 2026-04-27 13:17 | -28.42608 | 110.10841 | 37025 ft | 570 kts | 127° |
| 2026-04-27 13:18 | -28.47283 | 110.18135 | 37027 ft | 571 kts | 127° |
| 2026-04-27 13:18 | -28.51960 | 110.25446 | 37031 ft | 572 kts | 127° |
| 2026-04-27 13:19 | -28.56639 | 110.32771 | 37034 ft | 571 kts | 127° |
| 2026-04-27 13:19 | -28.59645 | 110.37485 | 37031 ft | 571 kts | 127° |
| 2026-04-27 13:20 | -28.64258 | 110.44740 | 37033 ft | 566 kts | 127° |
| 2026-04-27 13:20 | -28.68877 | 110.52004 | 37026 ft | 567 kts | 127° |
| 2026-04-27 13:21 | -28.73500 | 110.59286 | 37025 ft | 567 kts | 127° |
| 2026-04-27 13:21 | -28.78122 | 110.66578 | 37041 ft | 567 kts | 127° |
| 2026-04-27 13:22 | -28.82705 | 110.73824 | 37038 ft | 567 kts | 127° |
| 2026-04-27 13:22 | -28.87315 | 110.81124 | 37017 ft | 566 kts | 127° |
| 2026-04-27 13:23 | -28.91921 | 110.88432 | 37032 ft | 567 kts | 127° |
| 2026-04-27 13:23 | -28.96533 | 110.95762 | 37030 ft | 568 kts | 127° |
| 2026-04-27 13:24 | -29.01142 | 111.03100 | 37033 ft | 568 kts | 127° |
| 2026-04-27 13:24 | -29.05712 | 111.10388 | 37033 ft | 568 kts | 126° |
| 2026-04-27 13:25 | -29.10308 | 111.17731 | 37033 ft | 568 kts | 126° |
| 2026-04-27 13:25 | -29.14907 | 111.25093 | 37034 ft | 568 kts | 126° |
| 2026-04-27 13:26 | -29.19497 | 111.32452 | 37024 ft | 568 kts | 126° |
| 2026-04-27 13:26 | -29.24084 | 111.39818 | 37042 ft | 568 kts | 126° |
| 2026-04-27 13:27 | -29.28666 | 111.47192 | 37033 ft | 568 kts | 126° |
| 2026-04-27 13:27 | -29.33245 | 111.54572 | 37028 ft | 568 kts | 126° |
| 2026-04-27 13:28 | -29.37823 | 111.61964 | 37030 ft | 568 kts | 126° |
| 2026-04-27 13:28 | -29.42369 | 111.69317 | 37045 ft | 568 kts | 126° |
| 2026-04-27 13:29 | -29.46932 | 111.76712 | 37040 ft | 568 kts | 126° |
| 2026-04-27 13:29 | -29.51491 | 111.84115 | 37028 ft | 568 kts | 126° |
| 2026-04-27 13:30 | -29.56058 | 111.91542 | 37044 ft | 569 kts | 126° |
| 2026-04-27 13:30 | -29.60626 | 111.98985 | 37041 ft | 569 kts | 126° |
| 2026-04-27 13:31 | -29.65177 | 112.06413 | 37046 ft | 568 kts | 126° |
| 2026-04-27 13:31 | -29.69726 | 112.13852 | 37024 ft | 568 kts | 126° |
| 2026-04-27 13:32 | -29.74251 | 112.21266 | 37040 ft | 569 kts | 126° |
| 2026-04-27 13:32 | -29.78801 | 112.28733 | 37042 ft | 569 kts | 126° |
| 2026-04-27 13:33 | -29.83339 | 112.36194 | 37066 ft | 569 kts | 126° |
| 2026-04-27 13:33 | -29.87871 | 112.43660 | 37047 ft | 568 kts | 126° |
| 2026-04-27 13:34 | -29.92393 | 112.51123 | 37045 ft | 568 kts | 126° |
| 2026-04-27 13:34 | -29.96918 | 112.58603 | 37054 ft | 568 kts | 126° |
| 2026-04-27 13:35 | -30.01412 | 112.66046 | 37047 ft | 568 kts | 126° |
| 2026-04-27 13:35 | -30.06326 | 112.73154 | 37063 ft | 564 kts | 140° |
| 2026-04-27 13:36 | -30.09471 | 112.75819 | 37057 ft | 558 kts | 154° |
| 2026-04-27 13:36 | -30.12949 | 112.77740 | 37052 ft | 554 kts | 161° |
| 2026-04-27 13:36 | -30.20139 | 112.81003 | 37048 ft | 555 kts | 165° |
| 2026-04-27 13:37 | -30.27392 | 112.84091 | 37082 ft | 555 kts | 165° |
| 2026-04-27 13:37 | -30.34626 | 112.87213 | 37062 ft | 554 kts | 164° |
| 2026-04-27 13:38 | -30.41799 | 112.90362 | 37066 ft | 554 kts | 164° |
| 2026-04-27 13:38 | -30.49008 | 112.93550 | 37065 ft | 554 kts | 164° |
| 2026-04-27 13:39 | -30.56208 | 112.96738 | 37070 ft | 554 kts | 164° |
| 2026-04-27 13:39 | -30.63398 | 112.99925 | 37072 ft | 553 kts | 164° |
| 2026-04-27 13:40 | -30.70577 | 113.03110 | 37072 ft | 553 kts | 164° |
| 2026-04-27 13:40 | -30.77791 | 113.06315 | 37082 ft | 553 kts | 164° |
| 2026-04-27 13:41 | -30.84960 | 113.09509 | 37080 ft | 547 kts | 164° |
| 2026-04-27 13:41 | -30.92046 | 113.12675 | 37081 ft | 544 kts | 164° |
| 2026-04-27 13:42 | -30.99126 | 113.15837 | 37078 ft | 544 kts | 164° |
| 2026-04-27 13:42 | -31.06147 | 113.18976 | 37083 ft | 544 kts | 164° |
| 2026-04-27 13:43 | -31.13231 | 113.22148 | 37085 ft | 545 kts | 164° |
| 2026-04-27 13:43 | -31.20324 | 113.25331 | 37090 ft | 545 kts | 164° |
| 2026-04-27 13:44 | -31.27397 | 113.28510 | 37089 ft | 545 kts | 164° |
| 2026-04-27 13:44 | -31.34477 | 113.31698 | 37092 ft | 545 kts | 164° |
| 2026-04-27 13:45 | -31.41461 | 113.35205 | 37085 ft | 551 kts | 153° |
| 2026-04-27 13:45 | -31.44555 | 113.37855 | 37086 ft | 556 kts | 140° |
| 2026-04-27 13:45 | -31.47102 | 113.41203 | 37097 ft | 557 kts | 126° |
| 2026-04-27 13:46 | -31.48996 | 113.45149 | 37082 ft | 555 kts | 112° |
| 2026-04-27 13:46 | -31.50180 | 113.49426 | 37091 ft | 552 kts | 103° |
| 2026-04-27 13:46 | -31.51816 | 113.58204 | 37091 ft | 549 kts | 99° |
| 2026-04-27 13:47 | -31.53279 | 113.66983 | 37087 ft | 548 kts | 99° |
| 2026-04-27 13:47 | -31.54804 | 113.75727 | 37071 ft | 548 kts | 100° |
| 2026-04-27 13:48 | -31.55586 | 113.80081 | 36708 ft | 540 kts | 100° |
| 2026-04-27 13:48 | -31.56367 | 113.84395 | 35814 ft | 541 kts | 100° |
| 2026-04-27 13:48 | -31.57148 | 113.88707 | 34929 ft | 541 kts | 101° |
| 2026-04-27 13:48 | -31.57920 | 113.92972 | 34116 ft | 540 kts | 101° |
| 2026-04-27 13:49 | -31.58687 | 113.97333 | 33161 ft | 539 kts | 100° |
| 2026-04-27 13:49 | -31.59182 | 114.00198 | 32483 ft | 539 kts | 99° |
| 2026-04-27 13:49 | -31.60175 | 114.05890 | 31178 ft | 539 kts | 99° |
| 2026-04-27 13:49 | -31.60935 | 114.10204 | 30310 ft | 536 kts | 99° |
| 2026-04-27 13:50 | -31.61688 | 114.14465 | 29412 ft | 532 kts | 99° |
| 2026-04-27 13:50 | -31.62436 | 114.18697 | 28540 ft | 527 kts | 99° |
| 2026-04-27 13:50 | -31.62926 | 114.21476 | 27993 ft | 523 kts | 99° |
| 2026-04-27 13:50 | -31.63663 | 114.25643 | 27222 ft | 517 kts | 100° |
| 2026-04-27 13:51 | -31.64384 | 114.29733 | 26500 ft | 510 kts | 100° |
| 2026-04-27 13:51 | -31.65101 | 114.33797 | 25776 ft | 504 kts | 100° |
| 2026-04-27 13:51 | -31.65807 | 114.37812 | 25066 ft | 498 kts | 100° |
| 2026-04-27 13:51 | -31.66504 | 114.41774 | 24324 ft | 493 kts | 100° |
| 2026-04-27 13:52 | -31.67185 | 114.45642 | 23269 ft | 475 kts | 100° |
| 2026-04-27 13:52 | -31.67841 | 114.49378 | 21587 ft | 468 kts | 100° |
| 2026-04-27 13:52 | -31.68481 | 114.53058 | 20628 ft | 448 kts | 100° |
| 2026-04-27 13:52 | -31.69099 | 114.56578 | 20196 ft | 427 kts | 101° |
| 2026-04-27 13:53 | -31.70287 | 114.63366 | 19025 ft | 422 kts | 101° |
| 2026-04-27 13:53 | -31.70866 | 114.66692 | 18422 ft | 420 kts | 101° |
| 2026-04-27 13:53 | -31.71446 | 114.70043 | 17753 ft | 418 kts | 101° |
| 2026-04-27 13:54 | -31.72023 | 114.73374 | 17134 ft | 413 kts | 101° |
| 2026-04-27 13:54 | -31.72592 | 114.76663 | 16538 ft | 408 kts | 101° |
| 2026-04-27 13:54 | -31.73154 | 114.79922 | 15933 ft | 404 kts | 101° |
| 2026-04-27 13:54 | -31.73707 | 114.83131 | 15341 ft | 400 kts | 101° |
| 2026-04-27 13:55 | -31.74256 | 114.86324 | 14770 ft | 396 kts | 101° |
| 2026-04-27 13:55 | -31.74799 | 114.89482 | 14184 ft | 392 kts | 101° |
| 2026-04-27 13:55 | -31.75334 | 114.92596 | 13587 ft | 387 kts | 101° |
| 2026-04-27 13:55 | -31.75865 | 114.95697 | 13005 ft | 383 kts | 101° |
| 2026-04-27 13:56 | -31.76385 | 114.98741 | 12438 ft | 378 kts | 102° |
| 2026-04-27 13:56 | -31.76891 | 115.01708 | 11873 ft | 373 kts | 102° |
| 2026-04-27 13:56 | -31.77399 | 115.04685 | 11318 ft | 369 kts | 102° |
| 2026-04-27 13:56 | -31.77899 | 115.07621 | 10768 ft | 365 kts | 102° |
| 2026-04-27 13:57 | -31.78388 | 115.10503 | 10532 ft | 349 kts | 102° |
| 2026-04-27 13:57 | -31.78851 | 115.13225 | 10431 ft | 330 kts | 103° |
| 2026-04-27 13:57 | -31.79288 | 115.15810 | 10267 ft | 315 kts | 103° |
| 2026-04-27 13:57 | -31.79705 | 115.18284 | 10118 ft | 302 kts | 103° |
| 2026-04-27 13:58 | -31.80105 | 115.20673 | 9953 ft | 293 kts | 103° |
| 2026-04-27 13:58 | -31.80505 | 115.23042 | 9571 ft | 302 kts | 103° |
| 2026-04-27 13:58 | -31.80916 | 115.25469 | 9343 ft | 303 kts | 103° |
| 2026-04-27 13:58 | -31.81333 | 115.27919 | 9056 ft | 304 kts | 103° |
| 2026-04-27 13:59 | -31.81848 | 115.30321 | 8633 ft | 303 kts | 108° |
| 2026-04-27 13:59 | -31.82436 | 115.32686 | 8256 ft | 298 kts | 108° |
| 2026-04-27 13:59 | -31.83006 | 115.35012 | 7920 ft | 293 kts | 107° |
| 2026-04-27 13:59 | -31.83556 | 115.37313 | 7599 ft | 289 kts | 107° |
| 2026-04-27 14:00 | -31.84093 | 115.39585 | 7287 ft | 286 kts | 107° |
| 2026-04-27 14:00 | -31.84622 | 115.41828 | 6986 ft | 285 kts | 107° |
| 2026-04-27 14:00 | -31.85145 | 115.44065 | 6673 ft | 282 kts | 107° |
| 2026-04-27 14:00 | -31.85660 | 115.46281 | 6371 ft | 280 kts | 107° |
| 2026-04-27 14:01 | -31.86171 | 115.48482 | 6054 ft | 277 kts | 107° |
| 2026-04-27 14:01 | -31.86675 | 115.50660 | 5863 ft | 275 kts | 107° |
| 2026-04-27 14:01 | -31.87092 | 115.52835 | 5684 ft | 276 kts | 98° |
| 2026-04-27 14:01 | -31.87114 | 115.55122 | 5528 ft | 275 kts | 89° |
| 2026-04-27 14:02 | -31.87007 | 115.57336 | 5360 ft | 274 kts | 88° |
| 2026-04-27 14:02 | -31.86898 | 115.59589 | 5196 ft | 273 kts | 88° |
| 2026-04-27 14:02 | -31.86797 | 115.61793 | 5024 ft | 272 kts | 89° |
| 2026-04-27 14:02 | -31.86697 | 115.64034 | 4857 ft | 271 kts | 89° |
| 2026-04-27 14:03 | -31.86601 | 115.66233 | 4676 ft | 273 kts | 88° |
| 2026-04-27 14:03 | -31.86502 | 115.68461 | 4512 ft | 273 kts | 88° |
| 2026-04-27 14:03 | -31.86405 | 115.70684 | 4335 ft | 272 kts | 89° |
| 2026-04-27 14:03 | -31.86310 | 115.72906 | 4184 ft | 271 kts | 88° |
| 2026-04-27 14:04 | -31.86212 | 115.75100 | 4018 ft | 269 kts | 88° |
| 2026-04-27 14:04 | -31.86113 | 115.77291 | 3861 ft | 268 kts | 89° |
| 2026-04-27 14:04 | -31.86016 | 115.79426 | 3719 ft | 255 kts | 89° |
| 2026-04-27 14:04 | -31.85855 | 115.81462 | 3561 ft | 245 kts | 81° |
| 2026-04-27 14:05 | -31.85375 | 115.83376 | 3410 ft | 244 kts | 72° |
| 2026-04-27 14:05 | -31.84798 | 115.85256 | 3246 ft | 243 kts | 73° |
| 2026-04-27 14:05 | -31.84227 | 115.87131 | 3093 ft | 242 kts | 73° |
| 2026-04-27 14:05 | -31.83667 | 115.88959 | 2980 ft | 241 kts | 74° |
| 2026-04-27 14:06 | -31.83094 | 115.90832 | 2802 ft | 237 kts | 74° |
| 2026-04-27 14:06 | -31.82554 | 115.92585 | 2715 ft | 223 kts | 73° |
| 2026-04-27 14:06 | -31.82043 | 115.94229 | 2630 ft | 209 kts | 73° |
| 2026-04-27 14:06 | -31.81560 | 115.95795 | 2538 ft | 196 kts | 71° |
| 2026-04-27 14:07 | -31.81110 | 115.97249 | 2503 ft | 181 kts | 71° |
| 2026-04-27 14:07 | -31.80697 | 115.98571 | 2499 ft | 164 kts | 71° |
| 2026-04-27 14:07 | -31.80315 | 115.99792 | 2526 ft | 157 kts | 71° |
| 2026-04-27 14:07 | -31.80002 | 116.01024 | 2508 ft | 158 kts | 83° |
| 2026-04-27 14:08 | -31.80220 | 116.02238 | 2404 ft | 151 kts | 129° |
| 2026-04-27 14:08 | -31.81122 | 116.02704 | 2161 ft | 144 kts | 181° |
| 2026-04-27 14:08 | -31.82105 | 116.02709 | 2014 ft | 139 kts | 181° |
| 2026-04-27 14:08 | -31.83060 | 116.02705 | 2005 ft | 135 kts | 180° |
| 2026-04-27 14:09 | -31.83939 | 116.02433 | 2059 ft | 130 kts | 211° |
| 2026-04-27 14:09 | -31.84565 | 116.01678 | 1940 ft | 128 kts | 233° |
| 2026-04-27 14:09 | -31.85103 | 116.00833 | 1811 ft | 128 kts | 234° |
| 2026-04-27 14:09 | -31.85678 | 116.00032 | 1639 ft | 130 kts | 229° |
| 2026-04-27 14:10 | -31.86319 | 115.99281 | 1460 ft | 130 kts | 225° |
| 2026-04-27 14:10 | -31.87023 | 115.98650 | 1267 ft | 126 kts | 212° |
| 2026-04-27 14:10 | -31.87827 | 115.98282 | 1133 ft | 125 kts | 197° |
| 2026-04-27 14:10 | -31.88667 | 115.98056 | 939 ft | 123 kts | 192° |
| 2026-04-27 14:11 | -31.89492 | 115.97838 | 776 ft | 120 kts | 194° |
| 2026-04-27 14:11 | -31.90299 | 115.97589 | 627 ft | 118 kts | 195° |
| 2026-04-27 14:11 | -31.91083 | 115.97363 | 458 ft | 116 kts | 194° |
| 2026-04-27 14:11 | -31.91867 | 115.97140 | 302 ft | 114 kts | 194° |
| 2026-04-27 14:12 | -31.92642 | 115.96910 | 157 ft | 115 kts | 194° |
| 2026-04-27 14:12 | -31.93388 | 115.96693 | 85 ft | 109 kts | 195° |
| 2026-04-27 14:12 | -31.94106 | 115.96481 | 247 ft | 131 kts | 195° |
| 2026-04-27 14:12 | -31.95182 | 115.96093 | 810 ft | 196 kts | 199° |
| 2026-04-27 14:13 | -31.96654 | 115.95512 | 1694 ft | 227 kts | 198° |
| 2026-04-27 14:13 | -31.98184 | 115.94833 | 2424 ft | 242 kts | 208° |
| 2026-04-27 14:13 | -31.99332 | 115.93363 | 3051 ft | 253 kts | 246° |
| 2026-04-27 14:13 | -31.99401 | 115.91408 | 3330 ft | 229 kts | 290° |
| 2026-04-27 14:14 | -31.98390 | 115.90115 | 3273 ft | 215 kts | 339° |
| 2026-04-27 14:14 | -31.96947 | 115.89968 | 3266 ft | 215 kts | 12° |
| 2026-04-27 14:14 | -31.95462 | 115.90386 | 3160 ft | 213 kts | 17° |
| 2026-04-27 14:14 | -31.94025 | 115.90760 | 3122 ft | 215 kts | 7° |
| 2026-04-27 14:15 | -31.92559 | 115.90444 | 2922 ft | 216 kts | 338° |
| 2026-04-27 14:15 | -31.91179 | 115.89791 | 2669 ft | 211 kts | 346° |
| 2026-04-27 14:15 | -31.89766 | 115.89802 | 2429 ft | 200 kts | 14° |
| 2026-04-27 14:15 | -31.88438 | 115.90188 | 2168 ft | 194 kts | 18° |
| 2026-04-27 14:16 | -31.87181 | 115.90699 | 2008 ft | 189 kts | 30° |
| 2026-04-27 14:16 | -31.86165 | 115.91645 | 1974 ft | 187 kts | 51° |
| 2026-04-27 14:16 | -31.85319 | 115.92818 | 2018 ft | 191 kts | 56° |
| 2026-04-27 14:16 | -31.84535 | 115.94164 | 2325 ft | 211 kts | 62° |
| 2026-04-27 14:17 | -31.83793 | 115.95800 | 2852 ft | 240 kts | 66° |
| 2026-04-27 14:17 | -31.83163 | 115.97684 | 3540 ft | 260 kts | 72° |
| 2026-04-27 14:17 | -31.82678 | 115.99791 | 3902 ft | 266 kts | 78° |
| 2026-04-27 14:17 | -31.82402 | 116.01954 | 3987 ft | 267 kts | 85° |
| 2026-04-27 14:18 | -31.82347 | 116.04134 | 4005 ft | 268 kts | 92° |
| 2026-04-27 14:18 | -31.82559 | 116.06300 | 3996 ft | 270 kts | 103° |
| 2026-04-27 14:18 | -31.83278 | 116.08326 | 3995 ft | 270 kts | 124° |
| 2026-04-27 14:18 | -31.84627 | 116.09831 | 3994 ft | 270 kts | 152° |
| 2026-04-27 14:19 | -31.86413 | 116.10387 | 3999 ft | 269 kts | 182° |
| 2026-04-27 14:19 | -31.88190 | 116.09845 | 3903 ft | 261 kts | 210° |
| 2026-04-27 14:19 | -31.89452 | 116.08346 | 3328 ft | 262 kts | 245° |
| 2026-04-27 14:19 | -31.89780 | 116.06280 | 2875 ft | 255 kts | 270° |
| 2026-04-27 14:20 | -31.90004 | 116.04274 | 2180 ft | 238 kts | 261° |
| 2026-04-27 14:20 | -31.90590 | 116.02562 | 1574 ft | 216 kts | 239° |
| 2026-04-27 14:20 | -31.90925 | 116.01040 | 1861 ft | 191 kts | 284° |
| 2026-04-27 14:20 | -31.90097 | 115.99882 | 2281 ft | 182 kts | 343° |
| 2026-04-27 14:21 | -31.88951 | 116.00144 | 2254 ft | 175 kts | 41° |
| 2026-04-27 14:21 | -31.88123 | 116.01204 | 2256 ft | 177 kts | 52° |
| 2026-04-27 14:21 | -31.87272 | 116.02124 | 2569 ft | 155 kts | 28° |
| 2026-04-27 14:21 | -31.86313 | 116.01999 | 2711 ft | 142 kts | 322° |
| 2026-04-27 14:22 | -31.85847 | 116.00925 | 2536 ft | 161 kts | 285° |
| 2026-04-27 14:22 | -31.85903 | 115.99629 | 2210 ft | 158 kts | 251° |
| 2026-04-27 14:22 | -31.86630 | 115.98717 | 1734 ft | 157 kts | 203° |
| 2026-04-27 14:22 | -31.87683 | 115.98384 | 1363 ft | 152 kts | 194° |
| 2026-04-27 14:23 | -31.88704 | 115.98100 | 1019 ft | 148 kts | 197° |
| 2026-04-27 14:23 | -31.89657 | 115.97780 | 742 ft | 136 kts | 197° |
| 2026-04-27 14:23 | -31.90535 | 115.97528 | 545 ft | 126 kts | 194° |
| 2026-04-27 14:23 | -31.91350 | 115.97294 | 392 ft | 116 kts | 195° |
| 2026-04-27 14:24 | -31.92120 | 115.97068 | 265 ft | 114 kts | 195° |
| 2026-04-27 14:24 | -31.92861 | 115.96848 | 120 ft | 114 kts | 196° |
| 2026-04-27 14:24 | -31.93455 | 115.96672 | 65 ft | 107 kts | 196° |
| 2026-04-27 14:24 | -31.94077 | 115.96483 | 67 ft | 59 kts | 194° |
| 2026-04-27 14:25 | -31.94329 | 115.96420 | 63 ft | 25 kts | 192° |
| 2026-04-27 14:25 | -31.94456 | 115.96458 | 66 ft | 20 kts | 121° |
| 2026-04-27 14:25 | -31.94497 | 115.96620 | 65 ft | 18 kts | 104° |
| 2026-04-27 14:25 | -31.94498 | 115.96703 | 68 ft | 9 kts | 56° |
| 2026-04-27 14:26 | -31.94431 | 115.96739 | 70 ft | 13 kts | 13° |
| 2026-04-27 14:26 | -31.94333 | 115.96767 | 70 ft | 18 kts | 14° |
| 2026-04-27 14:26 | -31.94208 | 115.96814 | 65 ft | 16 kts | 44° |
| 2026-04-27 14:26 | -31.94197 | 115.96910 | 66 ft | 7 kts | 100° |
| 2026-04-27 14:27 | -31.94190 | 115.96946 | 68 ft | 2 kts | 41° |
| 2026-04-27 14:27 | -31.94170 | 115.96957 | 66 ft | 1 kts | 19° |
| 2026-04-27 14:27 | -31.94154 | 115.96960 | 69 ft | 1 kts | 3° |
| 2026-04-27 14:27 | -31.94136 | 115.96960 | 67 ft | 2 kts | 2° |